sensor_id;sensor_type;location;lat;lon;timestamp;P1;durP1;ratioP1;P2;durP2;ratioP2
51066;SDS011;37112;45.892;-123.962;2023-07-22T00:00:18;3.80;;;0.90;;
51066;SDS011;37112;45.892;-123.962;2023-07-22T00:02:51;8.10;;;1.90;;
51066;SDS011;37112;45.892;-123.962;2023-07-22T00:05:05;4.30;;;0.80;;
51066;SDS011;37112;45.892;-123.962;2023-07-22T00:07:19;4.30;;;0.50;;
51066;SDS011;37112;45.892;-123.962;2023-07-22T00:09:34;2.80;;;0.70;;
51066;SDS011;37112;45.892;-123.962;2023-07-22T00:11:51;2.80;;;0.50;;
51066;SDS011;37112;45.892;-123.962;2023-07-22T00:14:03;5.70;;;0.90;;
51066;SDS011;37112;45.892;-123.962;2023-07-22T00:16:17;2.60;;;0.60;;
51066;SDS011;37112;45.892;-123.962;2023-07-22T00:18:31;2.30;;;0.60;;
51066;SDS011;37112;45.892;-123.962;2023-07-22T00:20:44;3.20;;;0.60;;
51066;SDS011;37112;45.892;-123.962;2023-07-22T00:22:57;3.40;;;0.50;;
51066;SDS011;37112;45.892;-123.962;2023-07-22T00:25:11;2.90;;;0.70;;
51066;SDS011;37112;45.892;-123.962;2023-07-22T00:27:24;3.10;;;0.50;;
51066;SDS011;37112;45.892;-123.962;2023-07-22T00:29:37;1.90;;;0.60;;
51066;SDS011;37112;45.892;-123.962;2023-07-22T00:31:51;2.30;;;0.60;;
51066;SDS011;37112;45.892;-123.962;2023-07-22T00:34:04;2.70;;;0.60;;
51066;SDS011;37112;45.892;-123.962;2023-07-22T00:36:18;3.30;;;0.50;;
51066;SDS011;37112;45.892;-123.962;2023-07-22T00:38:34;6.90;;;0.70;;
51066;SDS011;37112;45.892;-123.962;2023-07-22T00:40:47;1.90;;;0.60;;
51066;SDS011;37112;45.892;-123.962;2023-07-22T00:43:00;6.20;;;0.80;;
51066;SDS011;37112;45.892;-123.962;2023-07-22T00:45:16;9.30;;;0.70;;
51066;SDS011;37112;45.892;-123.962;2023-07-22T00:47:30;3.40;;;0.60;;
51066;SDS011;37112;45.892;-123.962;2023-07-22T00:49:47;3.60;;;0.40;;
51066;SDS011;37112;45.892;-123.962;2023-07-22T00:52:02;3.80;;;0.50;;
51066;SDS011;37112;45.892;-123.962;2023-07-22T00:54:15;5.30;;;0.60;;
51066;SDS011;37112;45.892;-123.962;2023-07-22T00:56:29;4.90;;;0.80;;
51066;SDS011;37112;45.892;-123.962;2023-07-22T00:58:46;2.80;;;0.50;;
51066;SDS011;37112;45.892;-123.962;2023-07-22T01:00:59;2.80;;;0.50;;
51066;SDS011;37112;45.892;-123.962;2023-07-22T01:03:12;1.10;;;0.50;;
51066;SDS011;37112;45.892;-123.962;2023-07-22T01:05:26;2.80;;;0.60;;
51066;SDS011;37112;45.892;-123.962;2023-07-22T01:07:42;4.10;;;0.70;;
51066;SDS011;37112;45.892;-123.962;2023-07-22T01:09:57;2.80;;;0.50;;
51066;SDS011;37112;45.892;-123.962;2023-07-22T01:12:11;2.00;;;0.40;;
51066;SDS011;37112;45.892;-123.962;2023-07-22T01:14:25;3.30;;;0.60;;
51066;SDS011;37112;45.892;-123.962;2023-07-22T01:16:38;1.10;;;0.40;;
51066;SDS011;37112;45.892;-123.962;2023-07-22T01:18:51;3.60;;;0.90;;
51066;SDS011;37112;45.892;-123.962;2023-07-22T01:21:05;2.20;;;0.60;;
51066;SDS011;37112;45.892;-123.962;2023-07-22T01:23:20;4.60;;;0.60;;
51066;SDS011;37112;45.892;-123.962;2023-07-22T01:25:51;2.40;;;0.40;;
51066;SDS011;37112;45.892;-123.962;2023-07-22T01:28:06;3.20;;;0.50;;
51066;SDS011;37112;45.892;-123.962;2023-07-22T01:30:22;3.80;;;0.80;;
51066;SDS011;37112;45.892;-123.962;2023-07-22T01:32:35;4.60;;;0.50;;
51066;SDS011;37112;45.892;-123.962;2023-07-22T01:34:49;8.90;;;0.80;;
51066;SDS011;37112;45.892;-123.962;2023-07-22T01:37:02;5.30;;;0.60;;
51066;SDS011;37112;45.892;-123.962;2023-07-22T01:39:16;2.40;;;0.60;;
51066;SDS011;37112;45.892;-123.962;2023-07-22T01:41:30;12.30;;;0.60;;
51066;SDS011;37112;45.892;-123.962;2023-07-22T01:43:42;4.40;;;0.80;;
51066;SDS011;37112;45.892;-123.962;2023-07-22T01:45:57;5.30;;;0.50;;
51066;SDS011;37112;45.892;-123.962;2023-07-22T01:48:10;5.00;;;0.70;;
51066;SDS011;37112;45.892;-123.962;2023-07-22T01:50:24;5.40;;;0.70;;
51066;SDS011;37112;45.892;-123.962;2023-07-22T01:52:37;5.80;;;0.70;;
51066;SDS011;37112;45.892;-123.962;2023-07-22T01:54:50;7.00;;;0.70;;
51066;SDS011;37112;45.892;-123.962;2023-07-22T01:57:03;1.70;;;0.40;;
51066;SDS011;37112;45.892;-123.962;2023-07-22T01:59:16;1.70;;;0.40;;
51066;SDS011;37112;45.892;-123.962;2023-07-22T02:01:31;2.60;;;0.50;;
51066;SDS011;37112;45.892;-123.962;2023-07-22T02:03:43;2.30;;;0.40;;
51066;SDS011;37112;45.892;-123.962;2023-07-22T02:06:02;1.40;;;0.50;;
51066;SDS011;37112;45.892;-123.962;2023-07-22T02:08:15;1.50;;;0.30;;
51066;SDS011;37112;45.892;-123.962;2023-07-22T02:10:29;3.30;;;0.70;;
51066;SDS011;37112;45.892;-123.962;2023-07-22T02:12:43;4.90;;;0.70;;
51066;SDS011;37112;45.892;-123.962;2023-07-22T02:14:56;1.00;;;0.30;;
51066;SDS011;37112;45.892;-123.962;2023-07-22T02:17:10;1.00;;;0.30;;
51066;SDS011;37112;45.892;-123.962;2023-07-22T02:19:23;0.20;;;0.20;;
51066;SDS011;37112;45.892;-123.962;2023-07-22T02:21:38;0.30;;;0.30;;
51066;SDS011;37112;45.892;-123.962;2023-07-22T02:23:52;0.40;;;0.30;;
51066;SDS011;37112;45.892;-123.962;2023-07-22T02:26:05;0.30;;;0.30;;
51066;SDS011;37112;45.892;-123.962;2023-07-22T02:28:19;0.20;;;0.20;;
51066;SDS011;37112;45.892;-123.962;2023-07-22T02:30:32;0.30;;;0.30;;
51066;SDS011;37112;45.892;-123.962;2023-07-22T02:32:46;0.20;;;0.20;;
51066;SDS011;37112;45.892;-123.962;2023-07-22T02:34:59;0.70;;;0.40;;
51066;SDS011;37112;45.892;-123.962;2023-07-22T02:37:12;0.60;;;0.40;;
51066;SDS011;37112;45.892;-123.962;2023-07-22T02:39:25;0.50;;;0.50;;
51066;SDS011;37112;45.892;-123.962;2023-07-22T02:41:40;0.50;;;0.30;;
51066;SDS011;37112;45.892;-123.962;2023-07-22T02:43:53;1.10;;;0.30;;
51066;SDS011;37112;45.892;-123.962;2023-07-22T02:46:06;2.60;;;0.40;;
51066;SDS011;37112;45.892;-123.962;2023-07-22T02:48:20;0.40;;;0.40;;
51066;SDS011;37112;45.892;-123.962;2023-07-22T02:50:34;0.30;;;0.30;;
51066;SDS011;37112;45.892;-123.962;2023-07-22T02:52:48;0.40;;;0.40;;
51066;SDS011;37112;45.892;-123.962;2023-07-22T02:55:09;1.50;;;0.70;;
51066;SDS011;37112;45.892;-123.962;2023-07-22T02:57:27;0.70;;;0.40;;
51066;SDS011;37112;45.892;-123.962;2023-07-22T02:59:40;1.10;;;0.40;;
51066;SDS011;37112;45.892;-123.962;2023-07-22T03:01:54;0.60;;;0.40;;
51066;SDS011;37112;45.892;-123.962;2023-07-22T03:04:07;0.60;;;0.50;;
51066;SDS011;37112;45.892;-123.962;2023-07-22T03:06:22;0.90;;;0.40;;
51066;SDS011;37112;45.892;-123.962;2023-07-22T03:08:37;1.20;;;0.70;;
51066;SDS011;37112;45.892;-123.962;2023-07-22T03:10:50;2.10;;;0.50;;
51066;SDS011;37112;45.892;-123.962;2023-07-22T03:13:04;1.90;;;0.60;;
51066;SDS011;37112;45.892;-123.962;2023-07-22T03:15:17;1.70;;;0.50;;
51066;SDS011;37112;45.892;-123.962;2023-07-22T03:17:31;0.80;;;0.50;;
51066;SDS011;37112;45.892;-123.962;2023-07-22T03:19:44;0.40;;;0.40;;
51066;SDS011;37112;45.892;-123.962;2023-07-22T03:21:57;1.20;;;0.50;;
51066;SDS011;37112;45.892;-123.962;2023-07-22T03:24:11;0.70;;;0.40;;
51066;SDS011;37112;45.892;-123.962;2023-07-22T03:26:25;0.20;;;0.20;;
51066;SDS011;37112;45.892;-123.962;2023-07-22T03:28:39;1.10;;;0.50;;
51066;SDS011;37112;45.892;-123.962;2023-07-22T03:30:53;1.10;;;0.50;;
51066;SDS011;37112;45.892;-123.962;2023-07-22T03:33:08;2.00;;;0.40;;
51066;SDS011;37112;45.892;-123.962;2023-07-22T03:35:24;6.30;;;1.10;;
51066;SDS011;37112;45.892;-123.962;2023-07-22T03:37:38;4.30;;;0.60;;
51066;SDS011;37112;45.892;-123.962;2023-07-22T03:39:53;1.60;;;0.40;;
51066;SDS011;37112;45.892;-123.962;2023-07-22T03:42:08;0.70;;;0.40;;
51066;SDS011;37112;45.892;-123.962;2023-07-22T03:44:23;0.50;;;0.40;;
51066;SDS011;37112;45.892;-123.962;2023-07-22T03:46:37;0.40;;;0.40;;
51066;SDS011;37112;45.892;-123.962;2023-07-22T03:48:52;0.30;;;0.30;;
51066;SDS011;37112;45.892;-123.962;2023-07-22T03:51:06;0.50;;;0.40;;
51066;SDS011;37112;45.892;-123.962;2023-07-22T03:53:27;0.70;;;0.60;;
51066;SDS011;37112;45.892;-123.962;2023-07-22T03:55:42;0.50;;;0.50;;
51066;SDS011;37112;45.892;-123.962;2023-07-22T03:57:56;1.40;;;0.50;;
51066;SDS011;37112;45.892;-123.962;2023-07-22T04:00:13;0.90;;;0.40;;
51066;SDS011;37112;45.892;-123.962;2023-07-22T04:02:29;0.50;;;0.50;;
51066;SDS011;37112;45.892;-123.962;2023-07-22T04:04:44;0.90;;;0.50;;
51066;SDS011;37112;45.892;-123.962;2023-07-22T04:07:01;0.50;;;0.40;;
51066;SDS011;37112;45.892;-123.962;2023-07-22T04:09:16;0.40;;;0.40;;
51066;SDS011;37112;45.892;-123.962;2023-07-22T04:11:31;2.10;;;0.50;;
51066;SDS011;37112;45.892;-123.962;2023-07-22T04:13:46;2.10;;;0.50;;
51066;SDS011;37112;45.892;-123.962;2023-07-22T04:16:00;0.80;;;0.40;;
51066;SDS011;37112;45.892;-123.962;2023-07-22T04:18:15;0.80;;;0.50;;
51066;SDS011;37112;45.892;-123.962;2023-07-22T04:20:31;0.60;;;0.40;;
51066;SDS011;37112;45.892;-123.962;2023-07-22T04:22:46;1.20;;;0.40;;
51066;SDS011;37112;45.892;-123.962;2023-07-22T04:25:01;0.50;;;0.50;;
51066;SDS011;37112;45.892;-123.962;2023-07-22T04:27:18;0.40;;;0.40;;
51066;SDS011;37112;45.892;-123.962;2023-07-22T04:29:32;1.90;;;0.50;;
51066;SDS011;37112;45.892;-123.962;2023-07-22T04:31:48;1.90;;;0.70;;
51066;SDS011;37112;45.892;-123.962;2023-07-22T04:34:01;0.70;;;0.40;;
51066;SDS011;37112;45.892;-123.962;2023-07-22T04:36:16;1.00;;;0.50;;
51066;SDS011;37112;45.892;-123.962;2023-07-22T04:38:32;1.00;;;0.40;;
51066;SDS011;37112;45.892;-123.962;2023-07-22T04:40:46;0.70;;;0.40;;
51066;SDS011;37112;45.892;-123.962;2023-07-22T04:43:01;0.50;;;0.40;;
51066;SDS011;37112;45.892;-123.962;2023-07-22T04:45:15;0.80;;;0.60;;
51066;SDS011;37112;45.892;-123.962;2023-07-22T04:47:30;2.30;;;0.60;;
51066;SDS011;37112;45.892;-123.962;2023-07-22T04:49:44;0.60;;;0.50;;
51066;SDS011;37112;45.892;-123.962;2023-07-22T04:51:59;0.60;;;0.60;;
51066;SDS011;37112;45.892;-123.962;2023-07-22T04:54:14;0.70;;;0.60;;
51066;SDS011;37112;45.892;-123.962;2023-07-22T04:56:29;0.70;;;0.60;;
51066;SDS011;37112;45.892;-123.962;2023-07-22T04:58:43;0.70;;;0.60;;
51066;SDS011;37112;45.892;-123.962;2023-07-22T05:00:57;0.80;;;0.60;;
51066;SDS011;37112;45.892;-123.962;2023-07-22T05:03:12;1.10;;;0.60;;
51066;SDS011;37112;45.892;-123.962;2023-07-22T05:05:28;0.40;;;0.40;;
51066;SDS011;37112;45.892;-123.962;2023-07-22T05:07:42;0.40;;;0.40;;
51066;SDS011;37112;45.892;-123.962;2023-07-22T05:09:57;0.50;;;0.50;;
51066;SDS011;37112;45.892;-123.962;2023-07-22T05:12:12;0.30;;;0.30;;
51066;SDS011;37112;45.892;-123.962;2023-07-22T05:14:26;0.90;;;0.50;;
51066;SDS011;37112;45.892;-123.962;2023-07-22T05:16:40;0.40;;;0.40;;
51066;SDS011;37112;45.892;-123.962;2023-07-22T05:18:54;0.40;;;0.40;;
51066;SDS011;37112;45.892;-123.962;2023-07-22T05:21:08;1.50;;;0.50;;
51066;SDS011;37112;45.892;-123.962;2023-07-22T05:23:22;0.80;;;0.70;;
51066;SDS011;37112;45.892;-123.962;2023-07-22T05:25:35;1.50;;;1.00;;
51066;SDS011;37112;45.892;-123.962;2023-07-22T05:27:50;0.40;;;0.40;;
51066;SDS011;37112;45.892;-123.962;2023-07-22T05:30:03;0.70;;;0.40;;
51066;SDS011;37112;45.892;-123.962;2023-07-22T05:32:22;0.50;;;0.50;;
51066;SDS011;37112;45.892;-123.962;2023-07-22T05:34:40;1.00;;;0.40;;
51066;SDS011;37112;45.892;-123.962;2023-07-22T05:36:55;0.50;;;0.50;;
51066;SDS011;37112;45.892;-123.962;2023-07-22T05:39:10;0.60;;;0.50;;
51066;SDS011;37112;45.892;-123.962;2023-07-22T05:41:26;0.40;;;0.40;;
51066;SDS011;37112;45.892;-123.962;2023-07-22T05:43:45;1.20;;;0.30;;
51066;SDS011;37112;45.892;-123.962;2023-07-22T05:45:59;0.90;;;0.80;;
51066;SDS011;37112;45.892;-123.962;2023-07-22T05:48:12;0.80;;;0.60;;
51066;SDS011;37112;45.892;-123.962;2023-07-22T05:50:27;0.60;;;0.50;;
51066;SDS011;37112;45.892;-123.962;2023-07-22T05:52:41;1.10;;;0.70;;
51066;SDS011;37112;45.892;-123.962;2023-07-22T05:54:56;1.20;;;0.70;;
51066;SDS011;37112;45.892;-123.962;2023-07-22T05:57:09;1.30;;;0.80;;
51066;SDS011;37112;45.892;-123.962;2023-07-22T05:59:23;2.10;;;0.40;;
51066;SDS011;37112;45.892;-123.962;2023-07-22T06:01:38;0.40;;;0.40;;
51066;SDS011;37112;45.892;-123.962;2023-07-22T06:03:54;0.50;;;0.40;;
51066;SDS011;37112;45.892;-123.962;2023-07-22T06:06:08;0.50;;;0.40;;
51066;SDS011;37112;45.892;-123.962;2023-07-22T06:08:23;0.30;;;0.30;;
51066;SDS011;37112;45.892;-123.962;2023-07-22T06:10:37;0.60;;;0.50;;
51066;SDS011;37112;45.892;-123.962;2023-07-22T06:12:53;0.50;;;0.50;;
51066;SDS011;37112;45.892;-123.962;2023-07-22T06:15:08;0.60;;;0.50;;
51066;SDS011;37112;45.892;-123.962;2023-07-22T06:17:23;0.40;;;0.40;;
51066;SDS011;37112;45.892;-123.962;2023-07-22T06:19:39;0.40;;;0.40;;
51066;SDS011;37112;45.892;-123.962;2023-07-22T06:21:55;0.40;;;0.40;;
51066;SDS011;37112;45.892;-123.962;2023-07-22T06:24:10;0.80;;;0.50;;
51066;SDS011;37112;45.892;-123.962;2023-07-22T06:26:24;0.60;;;0.30;;
51066;SDS011;37112;45.892;-123.962;2023-07-22T06:28:37;0.70;;;0.40;;
51066;SDS011;37112;45.892;-123.962;2023-07-22T06:30:51;1.20;;;0.30;;
51066;SDS011;37112;45.892;-123.962;2023-07-22T06:33:05;1.10;;;0.40;;
51066;SDS011;37112;45.892;-123.962;2023-07-22T06:35:20;3.10;;;0.80;;
51066;SDS011;37112;45.892;-123.962;2023-07-22T06:37:33;5.30;;;0.90;;
51066;SDS011;37112;45.892;-123.962;2023-07-22T06:39:47;8.50;;;1.70;;
51066;SDS011;37112;45.892;-123.962;2023-07-22T06:42:01;4.30;;;1.30;;
51066;SDS011;37112;45.892;-123.962;2023-07-22T06:44:16;3.60;;;0.90;;
51066;SDS011;37112;45.892;-123.962;2023-07-22T06:46:30;2.80;;;1.00;;
51066;SDS011;37112;45.892;-123.962;2023-07-22T06:48:46;4.10;;;0.90;;
51066;SDS011;37112;45.892;-123.962;2023-07-22T06:51:01;3.80;;;0.80;;
51066;SDS011;37112;45.892;-123.962;2023-07-22T06:53:16;1.40;;;0.50;;
51066;SDS011;37112;45.892;-123.962;2023-07-22T06:55:30;2.90;;;0.50;;
51066;SDS011;37112;45.892;-123.962;2023-07-22T06:57:44;0.80;;;0.30;;
51066;SDS011;37112;45.892;-123.962;2023-07-22T06:59:58;0.30;;;0.30;;
51066;SDS011;37112;45.892;-123.962;2023-07-22T07:02:13;0.30;;;0.30;;
51066;SDS011;37112;45.892;-123.962;2023-07-22T07:04:26;0.30;;;0.30;;
51066;SDS011;37112;45.892;-123.962;2023-07-22T07:06:41;0.30;;;0.30;;
51066;SDS011;37112;45.892;-123.962;2023-07-22T07:08:55;0.40;;;0.30;;
51066;SDS011;37112;45.892;-123.962;2023-07-22T07:11:09;0.80;;;0.40;;
51066;SDS011;37112;45.892;-123.962;2023-07-22T07:13:22;0.30;;;0.30;;
51066;SDS011;37112;45.892;-123.962;2023-07-22T07:15:35;0.40;;;0.40;;
51066;SDS011;37112;45.892;-123.962;2023-07-22T07:17:48;0.30;;;0.30;;
51066;SDS011;37112;45.892;-123.962;2023-07-22T07:20:02;0.50;;;0.40;;
51066;SDS011;37112;45.892;-123.962;2023-07-22T07:22:16;0.60;;;0.30;;
51066;SDS011;37112;45.892;-123.962;2023-07-22T07:24:30;0.30;;;0.30;;
51066;SDS011;37112;45.892;-123.962;2023-07-22T07:26:45;0.50;;;0.50;;
51066;SDS011;37112;45.892;-123.962;2023-07-22T07:28:58;0.20;;;0.20;;
51066;SDS011;37112;45.892;-123.962;2023-07-22T07:31:11;0.70;;;0.40;;
51066;SDS011;37112;45.892;-123.962;2023-07-22T07:33:25;0.40;;;0.30;;
51066;SDS011;37112;45.892;-123.962;2023-07-22T07:35:38;1.10;;;0.40;;
51066;SDS011;37112;45.892;-123.962;2023-07-22T07:37:56;0.70;;;0.50;;
51066;SDS011;37112;45.892;-123.962;2023-07-22T07:40:13;0.40;;;0.30;;
51066;SDS011;37112;45.892;-123.962;2023-07-22T07:42:26;0.50;;;0.30;;
51066;SDS011;37112;45.892;-123.962;2023-07-22T07:44:40;0.40;;;0.40;;
51066;SDS011;37112;45.892;-123.962;2023-07-22T07:46:53;0.30;;;0.30;;
51066;SDS011;37112;45.892;-123.962;2023-07-22T07:49:06;7.10;;;2.30;;
51066;SDS011;37112;45.892;-123.962;2023-07-22T07:51:20;2.80;;;0.90;;
51066;SDS011;37112;45.892;-123.962;2023-07-22T07:53:35;0.60;;;0.40;;
51066;SDS011;37112;45.892;-123.962;2023-07-22T07:55:49;0.50;;;0.40;;
51066;SDS011;37112;45.892;-123.962;2023-07-22T07:58:02;0.30;;;0.30;;
51066;SDS011;37112;45.892;-123.962;2023-07-22T08:00:16;0.80;;;0.40;;
51066;SDS011;37112;45.892;-123.962;2023-07-22T08:02:30;0.80;;;0.40;;
51066;SDS011;37112;45.892;-123.962;2023-07-22T08:04:43;1.50;;;0.60;;
51066;SDS011;37112;45.892;-123.962;2023-07-22T08:06:56;4.70;;;0.80;;
51066;SDS011;37112;45.892;-123.962;2023-07-22T08:09:11;8.90;;;1.60;;
51066;SDS011;37112;45.892;-123.962;2023-07-22T08:11:27;20.10;;;5.00;;
51066;SDS011;37112;45.892;-123.962;2023-07-22T08:13:40;7.40;;;2.30;;
51066;SDS011;37112;45.892;-123.962;2023-07-22T08:15:54;9.30;;;1.70;;
51066;SDS011;37112;45.892;-123.962;2023-07-22T08:18:07;32.90;;;11.20;;
51066;SDS011;37112;45.892;-123.962;2023-07-22T08:20:21;6.20;;;1.20;;
51066;SDS011;37112;45.892;-123.962;2023-07-22T08:22:34;10.00;;;3.70;;
51066;SDS011;37112;45.892;-123.962;2023-07-22T08:24:47;12.30;;;1.30;;
51066;SDS011;37112;45.892;-123.962;2023-07-22T08:27:04;18.40;;;3.80;;
51066;SDS011;37112;45.892;-123.962;2023-07-22T08:29:17;18.60;;;5.10;;
51066;SDS011;37112;45.892;-123.962;2023-07-22T08:31:31;7.40;;;2.50;;
51066;SDS011;37112;45.892;-123.962;2023-07-22T08:33:45;8.80;;;2.60;;
51066;SDS011;37112;45.892;-123.962;2023-07-22T08:35:59;3.10;;;0.90;;
51066;SDS011;37112;45.892;-123.962;2023-07-22T08:38:12;2.30;;;0.90;;
51066;SDS011;37112;45.892;-123.962;2023-07-22T08:40:26;0.70;;;0.40;;
51066;SDS011;37112;45.892;-123.962;2023-07-22T08:42:43;0.90;;;0.40;;
51066;SDS011;37112;45.892;-123.962;2023-07-22T08:44:56;0.40;;;0.40;;
51066;SDS011;37112;45.892;-123.962;2023-07-22T08:47:13;0.30;;;0.30;;
51066;SDS011;37112;45.892;-123.962;2023-07-22T08:49:30;0.40;;;0.30;;
51066;SDS011;37112;45.892;-123.962;2023-07-22T08:51:44;1.90;;;0.50;;
51066;SDS011;37112;45.892;-123.962;2023-07-22T08:53:59;0.70;;;0.40;;
51066;SDS011;37112;45.892;-123.962;2023-07-22T08:56:17;2.40;;;0.40;;
51066;SDS011;37112;45.892;-123.962;2023-07-22T08:58:30;2.30;;;0.40;;
51066;SDS011;37112;45.892;-123.962;2023-07-22T09:00:46;0.50;;;0.40;;
51066;SDS011;37112;45.892;-123.962;2023-07-22T09:03:01;0.40;;;0.40;;
51066;SDS011;37112;45.892;-123.962;2023-07-22T09:05:16;0.60;;;0.40;;
51066;SDS011;37112;45.892;-123.962;2023-07-22T09:07:30;0.70;;;0.40;;
51066;SDS011;37112;45.892;-123.962;2023-07-22T09:09:44;0.60;;;0.40;;
51066;SDS011;37112;45.892;-123.962;2023-07-22T09:11:57;0.90;;;0.50;;
51066;SDS011;37112;45.892;-123.962;2023-07-22T09:14:11;0.30;;;0.30;;
51066;SDS011;37112;45.892;-123.962;2023-07-22T09:16:42;0.60;;;0.50;;
51066;SDS011;37112;45.892;-123.962;2023-07-22T09:18:56;1.70;;;0.90;;
51066;SDS011;37112;45.892;-123.962;2023-07-22T09:21:10;0.70;;;0.30;;
51066;SDS011;37112;45.892;-123.962;2023-07-22T09:23:33;0.40;;;0.40;;
51066;SDS011;37112;45.892;-123.962;2023-07-22T09:25:48;2.40;;;0.40;;
51066;SDS011;37112;45.892;-123.962;2023-07-22T09:28:01;1.80;;;0.30;;
51066;SDS011;37112;45.892;-123.962;2023-07-22T09:30:24;0.80;;;0.30;;
51066;SDS011;37112;45.892;-123.962;2023-07-22T09:32:38;0.30;;;0.30;;
51066;SDS011;37112;45.892;-123.962;2023-07-22T09:34:56;1.70;;;0.30;;
51066;SDS011;37112;45.892;-123.962;2023-07-22T09:37:10;0.50;;;0.40;;
51066;SDS011;37112;45.892;-123.962;2023-07-22T09:39:24;0.40;;;0.30;;
51066;SDS011;37112;45.892;-123.962;2023-07-22T09:41:41;0.90;;;0.40;;
51066;SDS011;37112;45.892;-123.962;2023-07-22T09:43:55;0.50;;;0.40;;
51066;SDS011;37112;45.892;-123.962;2023-07-22T09:46:11;0.40;;;0.40;;
51066;SDS011;37112;45.892;-123.962;2023-07-22T09:48:44;0.30;;;0.30;;
51066;SDS011;37112;45.892;-123.962;2023-07-22T09:50:58;0.90;;;0.60;;
51066;SDS011;37112;45.892;-123.962;2023-07-22T09:53:12;0.70;;;0.50;;
51066;SDS011;37112;45.892;-123.962;2023-07-22T09:55:28;1.30;;;0.40;;
51066;SDS011;37112;45.892;-123.962;2023-07-22T09:57:43;5.90;;;1.30;;
51066;SDS011;37112;45.892;-123.962;2023-07-22T09:59:57;0.60;;;0.50;;
51066;SDS011;37112;45.892;-123.962;2023-07-22T10:02:17;0.60;;;0.40;;
51066;SDS011;37112;45.892;-123.962;2023-07-22T10:04:34;0.40;;;0.40;;
51066;SDS011;37112;45.892;-123.962;2023-07-22T10:06:50;1.40;;;0.30;;
51066;SDS011;37112;45.892;-123.962;2023-07-22T10:09:04;0.30;;;0.30;;
51066;SDS011;37112;45.892;-123.962;2023-07-22T10:11:19;2.70;;;0.30;;
51066;SDS011;37112;45.892;-123.962;2023-07-22T10:13:35;1.40;;;0.50;;
51066;SDS011;37112;45.892;-123.962;2023-07-22T10:15:49;1.50;;;0.30;;
51066;SDS011;37112;45.892;-123.962;2023-07-22T10:18:04;0.40;;;0.30;;
51066;SDS011;37112;45.892;-123.962;2023-07-22T10:20:19;0.30;;;0.30;;
51066;SDS011;37112;45.892;-123.962;2023-07-22T10:22:33;0.50;;;0.40;;
51066;SDS011;37112;45.892;-123.962;2023-07-22T10:24:48;0.20;;;0.20;;
51066;SDS011;37112;45.892;-123.962;2023-07-22T10:27:02;0.30;;;0.30;;
51066;SDS011;37112;45.892;-123.962;2023-07-22T10:29:17;0.30;;;0.30;;
51066;SDS011;37112;45.892;-123.962;2023-07-22T10:31:32;0.50;;;0.20;;
51066;SDS011;37112;45.892;-123.962;2023-07-22T10:33:47;2.50;;;0.30;;
51066;SDS011;37112;45.892;-123.962;2023-07-22T10:36:05;1.50;;;0.30;;
51066;SDS011;37112;45.892;-123.962;2023-07-22T10:38:19;0.50;;;0.30;;
51066;SDS011;37112;45.892;-123.962;2023-07-22T10:40:46;0.20;;;0.20;;
51066;SDS011;37112;45.892;-123.962;2023-07-22T10:43:03;0.90;;;0.30;;
51066;SDS011;37112;45.892;-123.962;2023-07-22T10:45:25;1.50;;;0.30;;
51066;SDS011;37112;45.892;-123.962;2023-07-22T10:49:51;0.30;;;0.30;;
51066;SDS011;37112;45.892;-123.962;2023-07-22T10:52:15;1.80;;;0.30;;
51066;SDS011;37112;45.892;-123.962;2023-07-22T10:54:55;0.20;;;0.20;;
51066;SDS011;37112;45.892;-123.962;2023-07-22T10:57:25;0.20;;;0.20;;
51066;SDS011;37112;45.892;-123.962;2023-07-22T10:59:40;0.20;;;0.20;;
51066;SDS011;37112;45.892;-123.962;2023-07-22T11:02:01;1.40;;;0.20;;
51066;SDS011;37112;45.892;-123.962;2023-07-22T11:04:26;0.20;;;0.20;;
51066;SDS011;37112;45.892;-123.962;2023-07-22T11:07:02;0.30;;;0.30;;
51066;SDS011;37112;45.892;-123.962;2023-07-22T11:11:47;0.40;;;0.20;;
51066;SDS011;37112;45.892;-123.962;2023-07-22T11:14:18;0.20;;;0.20;;
51066;SDS011;37112;45.892;-123.962;2023-07-22T11:16:34;0.30;;;0.30;;
51066;SDS011;37112;45.892;-123.962;2023-07-22T11:18:48;1.00;;;0.40;;
51066;SDS011;37112;45.892;-123.962;2023-07-22T11:21:01;0.90;;;0.30;;
51066;SDS011;37112;45.892;-123.962;2023-07-22T11:23:19;0.30;;;0.30;;
51066;SDS011;37112;45.892;-123.962;2023-07-22T11:25:35;1.00;;;0.40;;
51066;SDS011;37112;45.892;-123.962;2023-07-22T11:27:49;1.00;;;0.20;;
51066;SDS011;37112;45.892;-123.962;2023-07-22T11:30:04;0.70;;;0.60;;
51066;SDS011;37112;45.892;-123.962;2023-07-22T11:32:20;0.50;;;0.20;;
51066;SDS011;37112;45.892;-123.962;2023-07-22T11:34:34;0.90;;;0.30;;
51066;SDS011;37112;45.892;-123.962;2023-07-22T11:36:49;0.30;;;0.30;;
51066;SDS011;37112;45.892;-123.962;2023-07-22T11:39:03;1.30;;;0.20;;
51066;SDS011;37112;45.892;-123.962;2023-07-22T11:41:18;0.20;;;0.20;;
51066;SDS011;37112;45.892;-123.962;2023-07-22T11:43:32;0.30;;;0.30;;
51066;SDS011;37112;45.892;-123.962;2023-07-22T11:45:46;1.20;;;0.30;;
51066;SDS011;37112;45.892;-123.962;2023-07-22T11:48:01;0.20;;;0.20;;
51066;SDS011;37112;45.892;-123.962;2023-07-22T11:50:19;0.30;;;0.30;;
51066;SDS011;37112;45.892;-123.962;2023-07-22T11:52:44;0.30;;;0.30;;
51066;SDS011;37112;45.892;-123.962;2023-07-22T11:55:05;0.20;;;0.20;;
51066;SDS011;37112;45.892;-123.962;2023-07-22T11:57:37;0.70;;;0.70;;
51066;SDS011;37112;45.892;-123.962;2023-07-22T12:00:02;1.30;;;0.40;;
51066;SDS011;37112;45.892;-123.962;2023-07-22T12:02:20;0.20;;;0.20;;
51066;SDS011;37112;45.892;-123.962;2023-07-22T12:04:34;2.30;;;0.30;;
51066;SDS011;37112;45.892;-123.962;2023-07-22T12:06:48;0.30;;;0.30;;
51066;SDS011;37112;45.892;-123.962;2023-07-22T12:09:01;0.30;;;0.30;;
51066;SDS011;37112;45.892;-123.962;2023-07-22T12:11:19;0.30;;;0.30;;
51066;SDS011;37112;45.892;-123.962;2023-07-22T12:13:37;1.20;;;0.20;;
51066;SDS011;37112;45.892;-123.962;2023-07-22T12:16:03;0.50;;;0.30;;
51066;SDS011;37112;45.892;-123.962;2023-07-22T12:18:17;0.90;;;0.40;;
51066;SDS011;37112;45.892;-123.962;2023-07-22T12:20:31;0.20;;;0.20;;
51066;SDS011;37112;45.892;-123.962;2023-07-22T12:22:45;0.80;;;0.20;;
51066;SDS011;37112;45.892;-123.962;2023-07-22T12:24:58;0.30;;;0.30;;
51066;SDS011;37112;45.892;-123.962;2023-07-22T12:27:12;0.30;;;0.30;;
51066;SDS011;37112;45.892;-123.962;2023-07-22T12:29:26;0.30;;;0.30;;
51066;SDS011;37112;45.892;-123.962;2023-07-22T12:31:40;0.60;;;0.30;;
51066;SDS011;37112;45.892;-123.962;2023-07-22T12:33:53;0.20;;;0.20;;
51066;SDS011;37112;45.892;-123.962;2023-07-22T12:36:06;0.30;;;0.30;;
51066;SDS011;37112;45.892;-123.962;2023-07-22T12:38:21;0.20;;;0.20;;
51066;SDS011;37112;45.892;-123.962;2023-07-22T12:40:34;2.80;;;0.30;;
51066;SDS011;37112;45.892;-123.962;2023-07-22T12:42:48;1.60;;;0.30;;
51066;SDS011;37112;45.892;-123.962;2023-07-22T12:45:02;0.30;;;0.30;;
51066;SDS011;37112;45.892;-123.962;2023-07-22T12:47:17;0.40;;;0.40;;
51066;SDS011;37112;45.892;-123.962;2023-07-22T12:49:30;0.70;;;0.20;;
51066;SDS011;37112;45.892;-123.962;2023-07-22T12:51:44;0.30;;;0.30;;
51066;SDS011;37112;45.892;-123.962;2023-07-22T12:53:57;0.50;;;0.40;;
51066;SDS011;37112;45.892;-123.962;2023-07-22T12:56:12;0.50;;;0.40;;
51066;SDS011;37112;45.892;-123.962;2023-07-22T12:58:28;0.30;;;0.30;;
51066;SDS011;37112;45.892;-123.962;2023-07-22T13:00:42;3.80;;;0.40;;
51066;SDS011;37112;45.892;-123.962;2023-07-22T13:02:55;0.50;;;0.40;;